Latest Weather Observations for Hindmarsh Island

IDS60901

Issued at 3:51 pm CDT Friday 20 October 2017 (issued every 10 minutes, with the page automatically refreshed every 10 minutes)

About weather observations | Map of Adelaide area stations | Latest observations for Adelaide area | Other Formats
Station Details ID: 023894 Name: HINDMARSH ISLAND AWS Lat: -35.52 Lon: 138.82 Height: 11.0 m
Data from the previous 72 hours. | See also: Recent months at Hindmarsh Island
Date/Time
CDT
Temp
°C
App
Temp
°C
Dew
Point
°C
Rel
Hum
%
Delta-T
°C
Wind Press
QNH
hPa
Press
MSL
hPa
Rain since
9am
mm
Dir  Spd
km/h
Gust
km/h
Spd
kts
Gust
kts
20/03:30pm 16.2 9.2 5.8 50 5.0 S 32 39 17 21 1030.5 1030.5 0.0
20/03:00pm 16.1 9.1 6.0 51 4.8 S 32 39 17 21 1030.5 1030.5 0.0
20/02:30pm 15.7 9.1 6.2 53 4.6 S 30 39 16 21 1030.7 1030.7 0.0
20/02:00pm 16.7 9.9 5.0 46 5.6 S 30 37 16 20 1030.9 1030.9 0.0
20/01:30pm 17.0 11.4 5.3 46 5.6 S 24 33 13 18 1031.0 1031.0 0.0
20/01:00pm 16.8 10.6 4.5 44 5.8 S 26 33 14 18 1031.1 1031.1 0.0
20/12:30pm 16.2 9.8 5.2 48 5.2 S 28 33 15 18 1031.4 1031.4 0.0
20/12:00pm 16.8 10.2 4.2 43 5.9 S 28 33 15 18 1031.6 1031.6 0.0
20/11:30am 15.8 9.0 5.1 49 5.0 SSE 30 37 16 20 1031.7 1031.7 0.0
20/11:00am 16.1 9.4 3.9 44 5.7 SSE 28 35 15 19 1031.7 1031.7 0.0
20/10:30am 15.9 9.4 4.6 47 5.3 S 28 35 15 19 1031.6 1031.6 0.0
20/10:00am 15.2 8.2 6.0 54 4.4 SSE 32 39 17 21 1031.5 1031.5 0.0
20/09:30am 14.5 7.3 5.0 53 4.4 SSE 32 39 17 21 1031.0 1031.0 0.0
20/09:00am 14.4 8.4 7.0 61 3.6 SSE 28 35 15 19 1030.7 1030.7 0.0
20/08:30am 14.0 7.5 6.4 60 3.6 S 30 39 16 21 1030.5 1030.5 0.0
20/08:00am 14.0 7.2 4.9 54 4.2 S 30 37 16 20 1030.2 1030.2 0.0
20/07:30am 14.0 7.3 3.8 50 4.6 S 28 35 15 19 1029.9 1029.9 0.0
20/07:00am 13.9 6.9 5.8 58 3.8 S 32 39 17 21 1029.4 1029.4 0.0
20/06:30am 13.6 5.4 4.7 55 4.1 S 37 46 20 25 1028.8 1028.8 0.0
20/06:00am 13.8 5.9 6.4 61 3.5 S 37 44 20 24 1028.5 1028.5 0.0
20/05:30am 13.9 6.3 7.4 65 3.2 S 37 46 20 25 1028.0 1028.0 0.0
20/05:00am 13.9 7.1 7.7 66 3.1 S 33 39 18 21 1027.6 1027.6 0.0
20/04:30am 13.6 6.8 7.6 67 2.9 S 33 41 18 22 1027.5 1027.5 0.0
20/04:00am 13.7 6.4 7.2 65 3.2 SSW 35 43 19 23 1027.2 1027.2 0.0
20/03:30am 13.8 6.5 7.1 64 3.2 S 35 41 19 22 1027.2 1027.2 0.0
20/03:00am 13.9 6.3 7.7 66 3.0 SSW 37 43 20 23 1027.0 1027.0 0.0
20/02:30am 13.7 6.7 8.5 71 2.6 S 35 43 19 23 1027.1 1027.1 0.0
20/02:00am 14.5 7.1 8.2 66 3.2 SSW 37 44 20 24 1027.1 1027.1 0.0
20/01:30am 14.2 7.2 8.4 68 2.9 SSW 35 41 19 22 1027.2 1027.2 0.0
20/01:00am 14.5 7.2 7.3 62 3.5 SSW 35 44 19 24 1027.3 1027.3 0.0
20/12:30am 14.4 7.8 8.4 67 3.0 SW 33 39 18 21 1027.3 1027.3 0.0
20/12:00am 14.6 8.2 6.9 60 3.7 SW 30 37 16 20 1027.1 1027.1 0.0
 
Date/Time
CDT
Temp
°C
App
Temp
°C
Dew
Point
°C
Rel
Hum
%
Delta-T
°C
Wind Press
QNH
hPa
Press
MSL
hPa
Rain since
9am
mm
Dir  Spd
km/h
Gust
km/h
Spd
kts
Gust
kts
19/11:30pm 14.4 7.1 7.0 61 3.6 SW 35 43 19 23 1027.1 1027.1 0.0
19/11:00pm 14.5 6.8 7.1 61 3.6 SSW 37 46 20 25 1027.0 1027.0 0.0
19/10:30pm 14.5 6.6 7.8 64 3.3 SW 39 48 21 26 1026.8 1026.8 0.0
19/10:00pm 14.6 7.2 8.3 66 3.2 SW 37 44 20 24 1026.7 1026.7 0.0
19/09:30pm 14.8 7.8 8.3 65 3.2 SW 35 44 19 24 1026.6 1026.6 0.0
19/09:00pm 14.8 7.8 8.3 65 3.2 SW 35 44 19 24 1026.4 1026.4 0.0
19/08:30pm 14.9 7.9 8.6 66 3.2 SSW 35 43 19 23 1025.7 1025.7 0.0
19/08:00pm 14.9 8.1 7.9 63 3.5 SW 33 43 18 23 1025.4 1025.4 0.0
19/07:30pm 14.9 8.1 7.9 63 3.5 SW 33 43 18 23 1025.0 1025.0 0.0
19/07:00pm 15.3 8.1 7.6 60 3.8 SW 35 44 19 24 1024.7 1024.7 0.0
19/06:30pm 16.0 9.0 8.5 61 3.8 SSW 35 46 19 25 1024.3 1024.3 0.0
19/06:00pm 16.6 10.4 9.5 63 3.7 SSW 32 41 17 22 1024.1 1024.1 0.0
19/05:30pm 16.9 10.7 9.3 61 3.9 SW 32 41 17 22 1023.7 1023.7 0.0
19/05:00pm 16.5 10.6 9.0 61 3.9 SSW 30 39 16 21 1023.8 1023.8 0.0
19/04:30pm 17.3 10.9 9.2 59 4.2 SSW 33 41 18 22 1023.4 1023.4 0.0
19/04:00pm 17.3 10.1 9.0 58 4.3 SSW 37 46 20 25 1023.0 1023.0 0.0
19/03:30pm 17.6 10.4 9.2 58 4.4 SSW 37 46 20 25 1022.9 1022.9 0.0
19/03:00pm 17.9 10.9 9.8 59 4.3 SSW 37 46 20 25 1022.7 1022.7 0.0
19/02:30pm 17.8 10.7 9.4 58 4.4 SW 37 44 20 24 1022.8 1022.8 0.0
19/02:00pm 16.6 10.4 10.2 66 3.4 SW 33 43 18 23 1022.7 1022.7 0.0
19/01:30pm 16.9 9.9 10.1 64 3.6 SW 37 44 20 24 1022.6 1022.6 0.0
19/01:00pm 16.2 8.3 9.2 63 3.6 SW 41 50 22 27 1022.0 1022.0 0.0
19/12:30pm 16.2 9.2 10.1 67 3.2 SW 37 46 20 25 1022.0 1022.0 0.0
19/12:00pm 17.3 11.0 10.9 66 3.4 SW 35 46 19 25 1021.9 1021.9 0.0
19/11:30am 17.4 11.6 11.4 68 3.2 SW 33 43 18 23 1022.1 1022.1 0.0
19/11:00am 16.9 11.1 11.4 70 3.0 SW 33 43 18 23 1021.6 1021.6 0.0
19/10:30am 17.2 11.0 11.5 69 3.1 WSW 35 46 19 25 1021.2 1021.2 0.0
19/10:00am 16.6 11.0 12.0 74 2.5 SW 33 44 18 24 1020.4 1020.4 0.0
19/09:30am 16.8 11.1 11.9 73 2.7 SW 33 43 18 23 1019.7 1019.7 0.0
19/09:00am 16.1 10.6 12.3 78 2.1 SW 33 43 18 23 1019.2 1019.2 2.4
19/08:30am 16.3 10.9 12.7 79 2.0 WSW 33 43 18 23 1018.9 1018.9 2.4
19/08:00am 16.2 11.0 12.9 81 1.8 WSW 32 43 17 23 1018.4 1018.4 2.4
19/07:30am 16.5 10.2 13.4 82 1.7 SW 39 50 21 27 1017.5 1017.5 2.4
19/07:25am 16.6 10.6 13.3 81 1.8 SW 37 50 20 27 1017.2 1017.2 2.4
19/07:00am 19.4 15.5 14.4 73 2.9 WNW 28 39 15 21 1016.3 1016.3 2.4
19/06:30am 19.8 15.9 14.4 71 3.1 NW 28 41 15 22 1015.4 1015.4 2.4
19/06:00am 20.4 16.2 13.6 65 3.9 NW 28 35 15 19 1014.8 1014.8 2.4
19/05:30am 20.7 16.5 13.4 63 4.2 NW 28 41 15 22 1014.3 1014.3 2.4
19/05:00am 20.1 16.4 13.8 67 3.6 NNW 26 32 14 17 1013.8 1013.8 2.4
19/04:30am 18.9 17.9 15.6 81 1.9 NNE 15 19 8 10 1013.5 1013.5 2.4
19/04:00am 19.7 18.7 14.5 72 3.0 N 13 22 7 12 1013.3 1013.3 2.4
19/03:30am 19.7 17.7 15.4 76 2.5 NNE 20 28 11 15 1013.8 1013.8 2.4
19/03:00am 19.4 17.8 16.4 83 1.8 NNE 20 30 11 16 1013.4 1013.4 2.2
19/02:30am 19.0 17.6 16.6 86 1.4 NNE 19 24 10 13 1014.3 1014.3 2.2
19/02:00am 18.5 18.1 16.1 86 1.4 ENE 13 15 7 8 1014.8 1014.8 2.0
19/01:30am 18.6 19.7 15.7 83 1.7 NE 4 9 2 5 1015.2 1015.2 2.0
19/01:00am 18.9 19.7 15.8 82 1.8 NW 6 11 3 6 1015.7 1015.7 1.6
19/12:30am 18.3 18.7 15.4 83 1.7 SSW 7 9 4 5 1015.3 1015.3 1.6
19/12:00am 18.5 18.2 15.4 82 1.8 SSW 11 13 6 7 1015.4 1015.4 1.4
 
Date/Time
CDT
Temp
°C
App
Temp
°C
Dew
Point
°C
Rel
Hum
%
Delta-T
°C
Wind Press
QNH
hPa
Press
MSL
hPa
Rain since
9am
mm
Dir  Spd
km/h
Gust
km/h
Spd
kts
Gust
kts
18/11:30pm 19.4 19.9 14.9 75 2.6 SW 6 11 3 6 1016.0 1016.0 0.0
18/11:00pm 19.5 16.5 14.7 74 2.8 SW 24 32 13 17 1014.7 1014.7 0.0
18/10:30pm 19.8 16.0 14.6 72 3.0 SW 28 35 15 19 1014.4 1014.4 0.0
18/10:00pm 20.3 16.9 14.7 70 3.3 SW 26 32 14 17 1014.7 1014.7 0.0
18/09:30pm 20.9 15.9 15.0 69 3.5 SW 35 48 19 26 1014.4 1014.4 0.0
18/09:00pm 22.1 15.4 14.5 62 4.5 SW 43 52 23 28 1013.7 1013.7 0.0
18/08:43pm 23.2 21.9 14.7 58 5.0 SE 15 39 8 21 1012.6 1012.6 0.0
18/08:30pm 23.9 22.4 14.3 55 5.7 E 15 15 8 8 1012.1 1012.1 0.0
18/08:00pm 24.4 22.7 13.6 51 6.3 E 15 15 8 8 1011.8 1011.8 0.0
18/07:30pm 24.9 23.3 15.0 54 5.9 ESE 17 24 9 13 1011.7 1011.7 0.0
18/07:22pm 25.5 24.8 14.3 50 6.7 SE 11 17 6 9 1011.5 1011.5 0.0
18/07:00pm 30.6 29.1 10.5 29 11.5 NNW 9 15 5 8 1011.5 1011.5 0.0
18/06:30pm 31.7 29.6 11.0 28 12.0 NW 13 17 7 9 1011.5 1011.5 0.0
18/06:00pm 31.6 27.8 9.8 26 12.4 WNW 20 24 11 13 1011.4 1011.4 0.0
18/05:30pm 31.6 27.9 10.3 27 12.2 WNW 20 26 11 14 1011.4 1011.4 0.0
18/05:00pm 32.6 28.6 10.6 26 12.7 NW 22 32 12 17 1011.3 1011.3 0.0
18/04:30pm 33.1 29.5 10.4 25 13.1 WNW 20 28 11 15 1011.5 1011.5 0.0
18/04:00pm 32.5 28.9 10.5 26 12.7 WNW 20 30 11 16 1011.7 1011.7 0.0
18/03:30pm 33.3 30.3 10.6 25 13.2 WNW 17 26 9 14 1012.0 1012.0 0.0
18/03:00pm 32.8 28.9 10.8 26 12.8 NW 22 35 12 19 1012.3 1012.3 0.0
18/02:30pm 33.1 28.7 10.4 25 13.1 NW 24 30 13 16 1012.6 1012.6 0.0
18/02:00pm 33.6 29.4 9.6 23 13.7 NW 22 33 12 18 1012.9 1012.9 0.0
18/01:30pm 31.8 27.3 9.9 26 12.5 WNW 24 33 13 18 1013.1 1013.1 0.0
18/01:00pm 33.4 28.9 10.1 24 13.4 NNW 24 35 13 19 1013.3 1013.3 0.0
18/12:30pm 32.8 29.1 10.2 25 13.0 NNW 20 37 11 20 1013.6 1013.6 0.0
18/12:00pm 32.9 27.9 10.9 26 12.8 N 28 39 15 21 1013.9 1013.9 0.0
18/11:30am 32.9 27.7 10.3 25 13.0 N 28 39 15 21 1014.2 1014.2 0.0
18/11:00am 32.2 27.0 10.3 26 12.6 N 28 43 15 23 1014.4 1014.4 0.0
18/10:30am 31.8 27.1 10.5 27 12.2 N 26 39 14 21 1014.6 1014.6 0.0
18/10:00am 31.0 26.2 10.4 28 11.8 NNW 26 43 14 23 1014.6 1014.6 0.0
18/09:30am 29.9 26.1 9.9 29 11.3 N 20 33 11 18 1014.8 1014.8 0.0
18/09:00am 27.5 25.4 11.1 36 9.3 NNE 13 17 7 9 1014.8 1014.8 0.0
18/08:30am 25.4 21.8 9.7 37 8.6 NNE 19 22 10 12 1014.9 1014.9 0.0
18/08:00am 23.9 21.6 10.6 43 7.4 NE 13 15 7 8 1014.8 1014.8 0.0
18/07:30am 22.2 19.7 11.0 49 6.2 NE 15 20 8 11 1014.7 1014.7 0.0
18/07:00am 20.8 18.8 10.3 51 5.7 NNE 11 17 6 9 1014.6 1014.6 0.0
18/06:30am 20.6 16.9 10.1 51 5.7 NNE 20 24 11 13 1014.2 1014.2 0.0
18/06:00am 20.5 17.0 10.3 52 5.5 NNE 19 24 10 13 1013.9 1013.9 0.0
18/05:30am 21.0 17.3 10.2 50 5.8 NNE 20 24 11 13 1013.8 1013.8 0.0
18/05:00am 22.0 17.8 9.9 46 6.6 NNE 22 28 12 15 1013.7 1013.7 0.0
18/04:30am 22.0 17.3 10.5 48 6.3 NNE 26 30 14 16 1013.4 1013.4 0.0
18/04:00am 20.6 17.5 10.4 52 5.5 NNE 17 20 9 11 1013.8 1013.8 0.0
18/03:30am 21.1 18.5 10.6 51 5.7 NNE 15 20 8 11 1014.1 1014.1 0.0
18/03:00am 21.4 18.9 10.9 51 5.8 N 15 20 8 11 1014.1 1014.1 0.0
18/02:30am 22.4 19.4 10.5 47 6.5 N 17 22 9 12 1014.2 1014.2 0.0
18/02:00am 21.9 18.5 10.4 48 6.3 N 19 26 10 14 1014.5 1014.5 0.0
18/01:30am 21.5 17.8 10.3 49 6.1 N 20 26 11 14 1014.7 1014.7 0.0
18/01:00am 19.5 17.3 10.8 57 4.7 N 13 15 7 8 1015.0 1015.0 0.0
18/12:30am 19.1 17.2 10.6 58 4.6 N 11 13 6 7 1015.2 1015.2 0.0
18/12:00am 19.3 17.3 10.3 56 4.8 N 11 15 6 8 1015.3 1015.3 0.0
 
Date/Time
CDT
Temp
°C
App
Temp
°C
Dew
Point
°C
Rel
Hum
%
Delta-T
°C
Wind Press
QNH
hPa
Press
MSL
hPa
Rain since
9am
mm
Dir  Spd
km/h
Gust
km/h
Spd
kts
Gust
kts
17/11:30pm 20.0 18.2 11.0 56 4.9 N 11 13 6 7 1015.3 1015.3 0.0
17/11:00pm 21.6 18.5 10.4 49 6.1 N 17 20 9 11 1015.2 1015.2 0.0
17/10:30pm 21.2 19.2 10.1 49 6.0 N 11 15 6 8 1015.4 1015.4 0.0
17/10:00pm 22.4 20.5 8.9 42 7.2 NNE 9 13 5 7 1015.5 1015.5 0.0
17/09:30pm 22.8 21.7 9.9 44 7.0 N 6 9 3 5 1015.5 1015.5 0.0
17/09:00pm 21.9 20.6 10.1 47 6.4 N 7 11 4 6 1015.1 1015.1 0.0
17/08:30pm 21.4 18.9 9.6 47 6.3 E 13 15 7 8 1014.9 1014.9 0.0
17/08:00pm 21.8 20.2 11.5 52 5.7 E 11 20 6 11 1014.8 1014.8 0.0
17/07:30pm 22.9 21.6 11.3 48 6.5 ENE 9 13 5 7 1014.7 1014.7 0.0
17/07:00pm 22.7 19.8 12.9 54 5.6 SE 20 26 11 14 1014.5 1014.5 0.0
17/06:30pm 24.6 21.0 11.9 45 7.2 S 22 28 12 15 1014.1 1014.1 0.0
17/06:00pm 25.1 20.6 11.3 42 7.8 SSE 26 32 14 17 1014.0 1014.0 0.0
17/05:30pm 27.0 22.7 10.7 36 9.2 S 24 30 13 16 1013.9 1013.9 0.0
17/05:00pm 28.7 24.7 8.9 29 10.9 S 20 28 11 15 1013.8 1013.8 0.0
17/04:30pm 32.9 26.7 1.9 14 15.6 N 24 35 13 19 1013.8 1013.8 0.0
17/04:00pm 33.1 27.6 2.1 14 15.7 NNW 20 30 11 16 1013.7 1013.7 0.0

Latest Capital City Observations: Canberra | Sydney | Melbourne | Brisbane | Adelaide | Perth | Hobart | Darwin

Other Formats:

Comma delimited format used in spreadsheet applications
http://www.bom.gov.au/fwo/IDS60901/IDS60901.94677.axf

JavaScript Object Notation format (JSON) in row-major order
http://www.bom.gov.au/fwo/IDS60901/IDS60901.94677.json